createdAt,value
2024-02-15T00:06:12.714Z,5.68
2024-02-15T00:09:14.451Z,8.57
2024-02-15T00:12:16.011Z,5.85
2024-02-15T00:15:17.797Z,5.30
2024-02-15T00:18:19.721Z,5.55
2024-02-15T00:21:21.598Z,8.95
2024-02-15T00:24:25.065Z,5.88
2024-02-15T00:27:26.516Z,8.65
2024-02-15T00:30:28.469Z,6.05
2024-02-15T00:33:30.326Z,7.68
2024-02-15T00:36:33.376Z,6.90
2024-02-15T00:39:34.902Z,9.70
2024-02-15T00:42:37.093Z,9.48
2024-02-15T00:45:38.578Z,8.00
2024-02-15T00:48:42.179Z,7.43
2024-02-15T00:51:44.227Z,6.22
2024-02-15T00:54:46.556Z,6.95
2024-02-15T00:57:48.039Z,6.68
2024-02-15T01:00:49.734Z,6.30
2024-02-15T01:03:51.339Z,7.85
2024-02-15T01:06:53.550Z,6.38
2024-02-15T01:09:55.316Z,6.55
2024-02-15T01:12:56.811Z,4.88
2024-02-15T01:15:58.282Z,6.90
2024-02-15T01:18:59.954Z,7.07
2024-02-15T01:22:01.727Z,6.93
2024-02-15T01:25:03.891Z,6.07
2024-02-15T01:28:05.578Z,6.30
2024-02-15T01:31:07.860Z,5.68
2024-02-15T01:34:10.306Z,6.75
2024-02-15T01:37:12.009Z,9.15
2024-02-15T01:40:16.552Z,7.90
2024-02-15T01:43:18.012Z,5.40
2024-02-15T01:46:22.022Z,7.40
2024-02-15T01:49:24.002Z,6.32
2024-02-15T01:52:25.735Z,7.53
2024-02-15T01:55:27.562Z,6.57
2024-02-15T01:58:32.256Z,6.85
2024-02-15T02:01:34.351Z,5.47
2024-02-15T02:04:35.809Z,5.88
2024-02-15T02:07:38.359Z,6.97
2024-02-15T02:10:40.891Z,6.65
2024-02-15T02:13:42.384Z,6.90
2024-02-15T02:16:43.856Z,6.45
2024-02-15T02:19:45.674Z,7.50
2024-02-15T02:22:51.676Z,6.68
2024-02-15T02:25:53.885Z,7.60
2024-02-15T02:28:55.405Z,8.63
2024-02-15T02:31:57.989Z,6.20
2024-02-15T02:34:59.442Z,8.60
2024-02-15T02:38:00.900Z,6.93
2024-02-15T02:41:02.334Z,5.88
2024-02-15T02:44:04.029Z,8.73
2024-02-15T02:47:05.525Z,5.75
2024-02-15T02:50:09.302Z,6.82
2024-02-15T02:53:11.940Z,7.90
2024-02-15T02:56:14.136Z,7.53
2024-02-15T02:59:17.175Z,7.72
2024-02-15T03:02:18.878Z,4.60
2024-02-15T03:05:22.305Z,8.15
2024-02-15T03:08:25.201Z,7.18
2024-02-15T03:11:26.736Z,7.72
2024-02-15T03:14:28.227Z,6.47
2024-02-15T03:17:32.525Z,5.78
2024-02-15T03:20:34.925Z,6.68
2024-02-15T03:23:36.409Z,6.85
2024-02-15T03:26:41.406Z,6.00
2024-02-15T03:29:43.064Z,6.68
2024-02-15T03:32:44.649Z,6.90
2024-02-15T03:35:46.144Z,5.72
2024-02-15T03:38:48.093Z,8.10
2024-02-15T03:41:49.604Z,5.03
2024-02-15T03:44:51.451Z,6.68
2024-02-15T03:47:54.034Z,6.93
2024-02-15T03:50:55.687Z,4.57
2024-02-15T03:53:57.266Z,6.72
2024-02-15T03:56:58.844Z,5.55
2024-02-15T04:00:00.782Z,6.53
2024-02-15T04:03:02.338Z,5.15
2024-02-15T04:06:04.340Z,5.70
2024-02-15T04:09:05.920Z,5.65
2024-02-15T04:12:08.304Z,4.72
2024-02-15T04:15:14.069Z,6.53
2024-02-15T04:18:16.055Z,4.93
2024-02-15T04:21:21.023Z,5.35
2024-02-15T04:24:22.862Z,3.65
2024-02-15T04:27:24.588Z,7.18
2024-02-15T04:30:26.118Z,5.80
2024-02-15T04:33:27.627Z,5.05
2024-02-15T04:36:34.218Z,5.30
2024-02-15T04:39:37.025Z,4.72
2024-02-15T04:42:40.926Z,4.10
2024-02-15T04:45:42.659Z,4.28
2024-02-15T04:48:44.237Z,4.22
2024-02-15T04:51:46.259Z,4.53
2024-02-15T04:54:47.655Z,5.78
2024-02-15T04:57:50.474Z,4.00
2024-02-15T05:00:54.637Z,5.63
2024-02-15T05:03:56.716Z,5.10
2024-02-15T05:06:58.240Z,5.35
2024-02-15T05:09:59.603Z,3.88
2024-02-15T05:13:02.342Z,7.57
2024-02-15T05:16:04.110Z,6.75
2024-02-15T05:19:06.327Z,5.35
2024-02-15T05:22:07.920Z,4.82
2024-02-15T05:25:09.873Z,6.03
2024-02-15T05:28:11.494Z,6.05
2024-02-15T05:31:18.751Z,5.55
2024-02-15T05:34:20.428Z,4.90
2024-02-15T05:37:22.169Z,7.43
2024-02-15T05:40:23.895Z,6.32
2024-02-15T05:43:26.473Z,6.35
2024-02-15T05:46:29.191Z,4.97
2024-02-15T05:49:30.651Z,6.70
2024-02-15T05:52:32.050Z,7.38
2024-02-15T05:55:35.530Z,5.10
2024-02-15T05:58:37.632Z,6.45
2024-02-15T06:01:40.152Z,5.32
2024-02-15T06:04:42.277Z,4.18
2024-02-15T06:07:45.037Z,5.38
2024-02-15T06:10:48.155Z,7.22
2024-02-15T06:13:49.611Z,6.95
2024-02-15T06:16:52.474Z,6.82
2024-02-15T06:19:54.060Z,4.53
2024-02-15T06:22:56.579Z,5.05
2024-02-15T06:26:03.174Z,6.35
2024-02-15T06:29:30.889Z,7.45
2024-02-15T06:32:50.751Z,4.70
2024-02-15T06:36:10.968Z,4.82
2024-02-15T06:39:31.207Z,7.78
2024-02-15T06:42:35.060Z,6.20
2024-02-15T06:45:38.378Z,5.25
2024-02-15T06:48:45.931Z,4.70
2024-02-15T06:51:50.646Z,5.55
2024-02-15T06:54:53.647Z,5.63
2024-02-15T06:57:56.208Z,8.07
2024-02-15T07:00:57.824Z,7.35
2024-02-15T07:03:59.858Z,5.10
2024-02-15T07:07:03.242Z,6.85
2024-02-15T07:10:05.559Z,5.40
2024-02-15T07:13:07.682Z,6.85
2024-02-15T07:16:09.605Z,5.90
2024-02-15T07:19:11.183Z,4.43
2024-02-15T07:22:12.766Z,5.68
2024-02-15T07:25:15.386Z,5.72
2024-02-15T07:28:16.824Z,7.28
2024-02-15T07:31:18.253Z,6.60
2024-02-15T07:34:20.363Z,6.93
2024-02-15T07:37:25.146Z,7.97
2024-02-15T07:40:29.437Z,10.00
2024-02-15T07:43:30.957Z,7.63
2024-02-15T07:46:32.356Z,11.85
2024-02-15T07:49:35.110Z,14.77
2024-02-15T07:52:36.691Z,14.45
2024-02-15T07:55:38.976Z,11.98
2024-02-15T07:58:53.945Z,14.48
2024-02-15T08:01:56.170Z,14.23
2024-02-15T08:04:57.826Z,9.02
2024-02-15T08:07:59.578Z,7.93
2024-02-15T08:11:03.133Z,6.55
2024-02-15T08:14:04.576Z,10.68
2024-02-15T08:17:06.004Z,8.70
2024-02-15T08:20:22.274Z,7.88
2024-02-15T08:23:23.765Z,7.25
2024-02-15T08:26:25.571Z,7.53
2024-02-15T08:29:27.032Z,6.45
2024-02-15T08:32:28.462Z,5.82
2024-02-15T08:35:36.660Z,6.88
2024-02-15T08:38:38.297Z,6.55
2024-02-15T08:41:39.942Z,5.30
2024-02-15T08:44:41.762Z,7.00
2024-02-15T08:47:44.687Z,6.13
2024-02-15T08:50:47.155Z,3.80
2024-02-15T08:53:48.952Z,7.57
2024-02-15T08:56:50.527Z,4.55
2024-02-15T08:59:53.517Z,4.15
2024-02-15T09:02:55.081Z,5.05
2024-02-15T09:05:56.705Z,7.25
2024-02-15T09:08:58.340Z,4.90
2024-02-15T09:12:02.376Z,6.82
2024-02-15T09:15:05.584Z,5.85
2024-02-15T09:18:10.896Z,6.57
2024-02-15T09:21:12.378Z,5.32
2024-02-15T09:24:13.866Z,5.90
2024-02-15T09:27:15.495Z,6.55
2024-02-15T09:30:18.289Z,5.95
2024-02-15T09:33:22.741Z,3.25
2024-02-15T09:36:24.378Z,3.47
2024-02-15T09:39:25.835Z,3.63
2024-02-15T09:42:27.634Z,3.63
2024-02-15T09:45:29.200Z,3.70
2024-02-15T09:48:32.020Z,4.63
2024-02-15T09:51:34.641Z,4.68
2024-02-15T09:54:37.282Z,5.28
2024-02-15T09:57:41.853Z,4.22
2024-02-15T10:00:44.549Z,6.72
2024-02-15T10:03:47.431Z,4.38
2024-02-15T10:06:49.044Z,3.03
2024-02-15T10:09:50.587Z,3.83
2024-02-15T10:12:56.720Z,3.35
2024-02-15T10:15:58.196Z,4.38
2024-02-15T10:19:12.095Z,4.10
2024-02-15T10:22:15.717Z,4.88
2024-02-15T10:25:17.259Z,4.57
2024-02-15T10:28:24.462Z,3.42
2024-02-15T10:31:26.018Z,3.78
2024-02-15T10:34:31.894Z,2.60
2024-02-15T10:37:33.498Z,4.05
2024-02-15T10:40:35.217Z,2.83
2024-02-15T10:43:40.765Z,2.88
2024-02-15T10:46:42.865Z,2.05
2024-02-15T10:49:47.790Z,3.67
2024-02-15T10:52:58.009Z,3.30
2024-02-15T10:56:28.201Z,3.55
2024-02-15T10:59:35.927Z,4.57
2024-02-15T11:02:55.480Z,2.97
2024-02-15T11:05:59.575Z,2.03
2024-02-15T11:09:02.159Z,1.77
2024-02-15T11:12:03.962Z,5.60
2024-02-15T11:15:07.903Z,2.22
2024-02-15T11:18:09.578Z,4.35
2024-02-15T11:21:11.730Z,3.17
2024-02-15T11:24:29.473Z,5.15
2024-02-15T11:27:32.833Z,2.28
2024-02-15T11:30:35.245Z,3.47
2024-02-15T11:33:38.199Z,2.88
2024-02-15T11:36:43.819Z,1.88
2024-02-15T11:39:46.957Z,3.05
2024-02-15T11:42:48.928Z,2.92
2024-02-15T11:45:59.949Z,3.00
2024-02-15T11:49:02.310Z,4.20
2024-02-15T11:52:13.068Z,2.30
2024-02-15T11:55:14.535Z,2.75
2024-02-15T11:58:22.914Z,5.68
2024-02-15T12:01:44.063Z,3.45
2024-02-15T12:05:04.872Z,1.85
2024-02-15T12:08:25.068Z,2.08
2024-02-15T12:11:45.164Z,2.53
2024-02-15T12:15:05.301Z,2.25
2024-02-15T12:18:35.797Z,5.05
2024-02-15T12:21:42.476Z,3.50
2024-02-15T12:24:45.063Z,2.97
2024-02-15T12:27:47.508Z,8.27
2024-02-15T12:30:56.408Z,3.83
2024-02-15T12:34:07.907Z,3.03
2024-02-15T12:37:10.461Z,5.22
2024-02-15T12:40:16.781Z,1.95
2024-02-15T12:43:18.333Z,4.10
2024-02-15T12:46:20.902Z,4.95
2024-02-15T12:49:22.269Z,2.75
2024-02-15T12:52:40.164Z,2.00
2024-02-15T12:55:42.106Z,5.22
2024-02-15T12:58:45.991Z,3.60
2024-02-15T13:01:50.575Z,2.30
2024-02-15T13:04:52.029Z,1.85
2024-02-15T13:07:59.041Z,2.70
2024-02-15T13:11:00.613Z,1.08
2024-02-15T13:14:02.605Z,5.47
2024-02-15T13:17:04.069Z,1.75
2024-02-15T13:20:06.312Z,7.65
2024-02-15T13:23:23.577Z,1.05
2024-02-15T13:26:26.729Z,1.30
2024-02-15T13:29:28.268Z,0.45
2024-02-15T13:32:30.343Z,1.83
2024-02-15T13:35:31.841Z,1.60
2024-02-15T13:38:33.252Z,0.90
2024-02-15T13:41:34.696Z,2.08
2024-02-15T13:44:36.125Z,2.70
2024-02-15T13:47:37.637Z,1.77
2024-02-15T13:50:40.552Z,1.98
2024-02-15T13:53:44.546Z,0.60
2024-02-15T13:56:46.224Z,1.40
2024-02-15T13:59:47.718Z,0.80
2024-02-15T14:02:54.214Z,3.63
2024-02-15T14:05:55.736Z,1.40
2024-02-15T14:08:57.188Z,0.77
2024-02-15T14:11:59.165Z,1.10
2024-02-15T14:15:01.185Z,1.00
2024-02-15T14:18:02.958Z,1.98
2024-02-15T14:21:04.946Z,3.45
2024-02-15T14:24:07.997Z,1.48
2024-02-15T14:27:10.573Z,0.88
2024-02-15T14:30:30.980Z,0.88
2024-02-15T14:33:35.020Z,1.98
2024-02-15T14:36:37.490Z,1.73
2024-02-15T14:39:38.919Z,1.05
2024-02-15T14:42:55.595Z,2.60
2024-02-15T14:45:59.189Z,1.25
2024-02-15T14:49:01.253Z,1.05
2024-02-15T14:52:04.540Z,7.25
2024-02-15T14:55:08.599Z,1.55
2024-02-15T15:01:14.902Z,4.43
2024-02-15T15:04:16.403Z,5.97
2024-02-15T15:07:36.461Z,3.10
2024-02-15T15:10:56.724Z,2.17
2024-02-15T15:13:59.048Z,1.30
2024-02-15T15:17:03.403Z,0.75
2024-02-15T15:23:11.489Z,2.22
2024-02-15T15:26:22.850Z,1.70
2024-02-15T15:29:24.364Z,1.38
2024-02-15T15:32:27.047Z,3.35
2024-02-15T15:35:32.130Z,1.33
2024-02-15T15:38:35.582Z,2.38
2024-02-15T15:41:38.646Z,1.00
2024-02-15T15:44:40.376Z,0.52
2024-02-15T15:47:42.962Z,0.95
2024-02-15T15:50:44.973Z,3.20
2024-02-15T15:53:47.897Z,2.17
2024-02-15T15:56:51.827Z,3.83
2024-02-15T15:59:53.333Z,3.55
2024-02-15T16:02:57.397Z,1.25
2024-02-15T16:05:58.882Z,1.40
2024-02-15T16:09:00.900Z,0.63
2024-02-15T16:12:02.407Z,1.15
2024-02-15T16:15:07.067Z,1.20
2024-02-15T16:18:09.222Z,1.70
2024-02-15T16:21:10.814Z,1.73
2024-02-15T16:24:12.605Z,0.77
2024-02-15T16:27:14.078Z,3.72
2024-02-15T16:30:15.688Z,1.73
2024-02-15T16:33:17.879Z,1.73
2024-02-15T16:36:19.506Z,1.35
2024-02-15T16:39:21.618Z,1.77
2024-02-15T16:42:23.129Z,0.75
2024-02-15T16:45:25.205Z,1.77
2024-02-15T16:48:26.837Z,1.55
2024-02-15T16:51:28.435Z,2.08
2024-02-15T16:54:29.906Z,2.28
2024-02-15T16:57:31.374Z,4.30
2024-02-15T17:00:33.620Z,2.35
2024-02-15T17:03:35.449Z,1.77
2024-02-15T17:06:37.075Z,1.13
2024-02-15T17:09:38.571Z,1.92
2024-02-15T17:12:41.543Z,1.77
2024-02-15T17:15:43.001Z,1.13
2024-02-15T17:18:45.403Z,2.42
2024-02-15T17:21:46.979Z,2.40
2024-02-15T17:24:48.756Z,1.80
2024-02-15T17:27:51.405Z,4.32
2024-02-15T17:30:53.778Z,2.92
2024-02-15T17:33:55.298Z,5.32
2024-02-15T17:36:56.840Z,3.30
2024-02-15T17:39:58.264Z,1.95
2024-02-15T17:42:59.667Z,2.17
2024-02-15T17:46:01.138Z,4.00
2024-02-15T17:49:03.002Z,1.65
2024-02-15T17:52:04.796Z,3.17
2024-02-15T17:55:09.917Z,3.38
2024-02-15T17:58:12.565Z,4.25
2024-02-15T18:01:15.160Z,4.97
2024-02-15T18:04:17.856Z,5.32
2024-02-15T18:07:19.915Z,4.28
2024-02-15T18:10:22.887Z,4.45
2024-02-15T18:13:24.657Z,4.07
2024-02-15T18:16:26.058Z,1.95
2024-02-15T18:19:27.659Z,5.13
2024-02-15T18:22:29.470Z,3.28
2024-02-15T18:25:30.971Z,3.03
2024-02-15T18:28:32.744Z,2.50
2024-02-15T18:31:36.386Z,4.45
2024-02-15T18:34:38.105Z,5.13
2024-02-15T18:37:41.595Z,3.03
2024-02-15T18:40:43.420Z,2.72
2024-02-15T18:43:50.804Z,3.40
2024-02-15T18:46:52.419Z,4.07
2024-02-15T18:49:59.965Z,3.22
2024-02-15T18:53:02.089Z,3.33
2024-02-15T18:56:03.690Z,3.50
2024-02-15T18:59:07.301Z,6.80
2024-02-15T19:02:08.972Z,2.97
2024-02-15T19:05:16.123Z,4.75
2024-02-15T19:08:17.835Z,3.95
2024-02-15T19:11:19.444Z,8.18
2024-02-15T19:14:24.397Z,3.55
2024-02-15T19:17:27.506Z,2.67
2024-02-15T19:20:29.009Z,1.65
2024-02-15T19:23:31.363Z,2.30
2024-02-15T19:26:32.798Z,3.00
2024-02-15T19:29:34.215Z,2.45
2024-02-15T19:32:38.133Z,4.00
2024-02-15T19:35:42.898Z,2.15
2024-02-15T19:38:45.577Z,3.05
2024-02-15T19:41:47.908Z,3.75
2024-02-15T19:44:50.082Z,3.15
2024-02-15T19:47:52.434Z,4.22
2024-02-15T19:50:55.081Z,5.05
2024-02-15T19:53:56.806Z,3.08
2024-02-15T19:56:58.377Z,3.17
2024-02-15T20:00:01.052Z,3.08
2024-02-15T20:03:05.438Z,2.42
2024-02-15T20:06:07.063Z,2.97
2024-02-15T20:09:09.264Z,2.75
2024-02-15T20:12:12.274Z,3.75
2024-02-15T20:15:14.249Z,5.53
2024-02-15T20:18:15.941Z,3.08
2024-02-15T20:21:18.296Z,2.75
2024-02-15T20:24:20.051Z,3.45
2024-02-15T20:27:23.157Z,3.85
2024-02-15T20:30:24.909Z,3.72
2024-02-15T20:33:28.838Z,4.70
2024-02-15T20:36:30.518Z,4.45
2024-02-15T20:39:36.408Z,6.00
2024-02-15T20:42:39.225Z,4.57
2024-02-15T20:45:41.369Z,3.38
2024-02-15T20:48:42.960Z,3.67
2024-02-15T20:51:46.556Z,2.88
2024-02-15T20:54:48.806Z,8.30
2024-02-15T20:57:51.548Z,4.75
2024-02-15T21:00:55.823Z,3.95
2024-02-15T21:03:58.142Z,3.45
2024-02-15T21:06:59.648Z,6.03
2024-02-15T21:10:01.361Z,4.25
2024-02-15T21:13:03.039Z,6.70
2024-02-15T21:16:05.749Z,5.55
2024-02-15T21:19:10.254Z,8.43
2024-02-15T21:22:12.172Z,5.78
2024-02-15T21:25:15.282Z,5.60
2024-02-15T21:28:17.225Z,3.92
2024-02-15T21:31:19.006Z,4.90
2024-02-15T21:34:21.628Z,5.30
2024-02-15T21:37:25.284Z,5.90
2024-02-15T21:40:29.504Z,6.30
2024-02-15T21:43:30.992Z,5.23
2024-02-15T21:46:32.601Z,5.85
2024-02-15T21:49:34.145Z,10.45
2024-02-15T21:52:35.631Z,5.07
2024-02-15T21:55:40.034Z,3.92
2024-02-15T21:58:41.816Z,6.47
2024-02-15T22:01:43.212Z,6.15
2024-02-15T22:04:44.727Z,5.07
2024-02-15T22:07:46.165Z,5.80
2024-02-15T22:10:50.330Z,5.38
2024-02-15T22:13:52.534Z,4.33
2024-02-15T22:16:54.603Z,5.18
2024-02-15T22:19:56.218Z,4.75
2024-02-15T22:22:59.838Z,6.45
2024-02-15T22:26:01.390Z,4.72
2024-02-15T22:29:02.816Z,6.25
2024-02-15T22:32:04.777Z,4.88
2024-02-15T22:35:06.924Z,4.22
2024-02-15T22:38:08.502Z,4.72
2024-02-15T22:41:09.903Z,4.15
2024-02-15T22:44:11.283Z,5.57
2024-02-15T22:47:12.693Z,3.47
2024-02-15T22:50:14.252Z,6.18
2024-02-15T22:53:15.879Z,5.78
2024-02-15T22:56:17.334Z,4.30
2024-02-15T22:59:19.659Z,6.80
2024-02-15T23:02:22.576Z,4.15
2024-02-15T23:05:24.642Z,4.45
2024-02-15T23:08:29.027Z,3.72
2024-02-15T23:11:32.420Z,6.75
2024-02-15T23:14:35.178Z,4.40
2024-02-15T23:17:36.878Z,5.50
2024-02-15T23:20:39.580Z,3.17
2024-02-15T23:23:41.007Z,5.43
2024-02-15T23:26:42.757Z,4.07
2024-02-15T23:29:44.764Z,3.53
2024-02-15T23:32:46.843Z,3.95
2024-02-15T23:36:08.513Z,4.03
2024-02-15T23:39:28.849Z,5.55
2024-02-15T23:42:30.411Z,7.22
2024-02-15T23:45:33.900Z,3.55
2024-02-15T23:48:37.473Z,4.30
2024-02-15T23:51:39.002Z,5.00
2024-02-15T23:54:40.577Z,5.00
2024-02-15T23:57:47.131Z,4.47
